Terminal Aerodrome Forecast
Issued by NWS

Home | Current Version | Previous Version | Text Only | Print | Product List | Glossary On
Versions: 1 2 3 4 5 6 7 8 9 10 11 12 13 14 15 16 17 18 19 20 21
870
FTUS43 KPAH 290539
TAFCGI
TAF
KCGI 290539Z 2906/3006 35006KT P6SM -SHRA VCTS SCT015CB BKN040
      TEMPO 2906/2908 VRB07KT 4SM TSRA BR BKN008CB
     FM291030 14008KT 4SM TSRA BR OVC008CB
     FM291400 19008KT P6SM BKN020 OVC030
     FM291800 17012KT P6SM SCT060 BKN120=

USA.gov is the U.S. government's official web portal to all federal, state and local government web resources and services.